Timeline UpdatesTrip UpdatesNews PostsPvt Posts♥♥Travel TipsAdmin PostsConv PostsFollowed PostsChat RequestsBlog PostsPNR Posts

Disclaimer
Search
 
 
Fri Oct 24, 2014 13:19:47 ISTHomeTrainsΣChainsAtlasPNRForumGalleryNewsFAQTripsMembersLoginFeedback
No Recent News for this Train
Other Trains in the News **new
Latest...
.
Sun Nov 03, 2013 (10:46PM)
⇐ Return Journey: Train# 13352

13351/Dhanbad-Alappuzha Express

Time-Table HAS CHANGED.
Sep 13 2014 (11:08AM)
Change Departure Station:
Change Arrival Station:
Post a Train Travel TipPost a Train Travel Tip **new
Post a Comment/Question/Picture/VideoPost a Comment/Question/Picture/Video
Pantry/Catering
✓ Pantry Car Avbl
✓ Catering Avbl
Average
Loco/Rake Reversals
MAS/Chennai Central (12); SRR/Shoranur Junction (7); VSKP/Visakhapatnam Junction (8);
RSA - Rake Sharing
Rake/Coach Composition
LOCO-SLR-GS-S1-S2-S3-S4-S5-; S6-S7-S8-PC-A1-B1-B2*-A2*-ST1*-ST2*-; ST3*-ST4*-ST5*-GS*-SLR*;(DHN-VSKP, MAS-SRR) ; *Tata portion attached at ROU; CC reverses for VSKP-MAS & SRR-ALLP)
Loco
Official Loco DHN - ROU :- WAM-4 ROU - VSKP :- WDM-3A/WDG-3A...
Read more...
(Twins) VSKP - MAS :- WAM-4/WAP-1 MAS - ALLP:- WAM-4/WAP-4
News    PNR    Forum    Time-Table    Availability    Fare Chart    Map    Arr/Dep History    Trips    Gallery    ΣChains    X/O    Timeline    
Travel Time: 49h 35m    84 halts    Distance: 2268 km    Avg Speed: 45 km/hr
Type: Mail/Express
Zone: ECR/East Central
Departs @ 10:50 (Avg 6m late)
Platform# 5
SMTWTFS
Dhanbad Junction/DHN 
Arrives @ 12:25 +2 nights (Avg 53m late)
Platform# ???
SMTWTFS
Coimbatore Main Junction/CBE 

84 halts. 369 intermediate Stations between Dhanbad Junction and Coimbatore Main Junction

Show ALL intermediate Stations  Show Old Time-Table

#TrkCodeStation NameX/OArrivesAvgDepartsAvgHaltPFDay#KmSpeedElevZoneAddress
1/==/DHNDhanbad Junction (9)»  -10:50+6510.030235mECR2319801. Div. HQ ECR, Jharkhand
2/==/KTHKatrasgarh (1)  11:18+611:20+72m1113.834198mECRKatrasgarh, Jharkhand
3/--/CRPChandrapura Junction (3)X  11:56+611:58+82m1134.335227mECR06549-242555, Jharkhand
4/==/BKSCBokaro Steel City (3)  12:25+912:35+910m2149.871245mSER06542-253861, Jharkhand
5/==/PNWPundhag (3)  12:49+1012:50+111m2166.563291mSERDist - Puruliya -723215, West Bengal
6/==/JAAJhalida (3)  13:12+1413:13+151m--189.738297mSERJhalida, West Bengal
7/==/MURIMuri Junction (3)X  13:33+1413:35+142m21102.548254mSER06522-222444, Jharkhand
8/==/RNCRanchi Junction (6)X  14:50+1815:05+1615m31162.228632mSERDiv HQ SER, Jharkhand
9/==/HTEHatia (3)  15:20+1615:25+175m--1169.278657mSER2788599, Jharkhand
10/--/GBXGovindpur Road (3)  15:58 15:57+2416:00 15:58+252 1m--1210.982577mSERkhunti, Jharkhand
11/--/BANOBano (2)  16:45 16:37+2916:46 16:38+301m--1264.136452mSERDist. Gumla, Jharkhand
12/--/NXNNuagaon  17:49+1217:50+151m--1306.252218mSERKeonjhar, Odisha
13/-=/BNDMBondamunda (2)  18:14+2118:15+121m--1326.926213mSERRourkela, Odisha
14/--/ROURourkela Junction (5)X  18:30+1519:00+2730m21333.464198mSERRourkela, Odisha
15/==/GPRaj Gangpur (3)O  19:28+3219:29+331m11363.269237mSERRaj Ganpur, Odisha
16/==/BMBBamra (3)X  19:59+3620:00+361m--1397.955259mSERBamra PH : 06642-229268, Odisha
17/==/JSGJharsuguda Junction (5)  20:40+2420:50+2310m11434.469236mSERJharsuguda, Odisha
18|==!RGLRengaliO  21:15 21:13+4821:17 21:15+482m--1460.869208mECoRState Highway 10, Odisha
19|==|SBPDSambalpur Road  21:35 21:33+421:37 21:35+42m--1481.59161mECoRSambalpur, Odisha
20|--|SBPSambalpur Junction (3)X  21:45+4921:55+5110m--1483.064159mECoRSambalpur, Odisha
21|--|ATSAttabira  22:18+5622:20+1:002m--1507.577164mECoRBargarh, Odisha
22|--|BRGABargarh Road (3)XO  22:34+1:0422:39+1:115m--1525.672185mECoRBargarh, Odisha
23|--|BRPLBarpaliX  22:57 22:55+1:1122:59 22:57+1:162m--1544.865178mECoRBarpali, Odisha
24|--|BLGRBalangir (3)  23:50+1:1623:55+1:245m--1601.847210mECoRBolangir, Odisha
25|--|BUDMBadmal  00:50+1:1200:52+1:122m--2645.223209mECoRDumerbahal Rd, Odisha
26|--|TIGTitlagarh Junction (3)XO  01:45+4001:55+4810m--2665.256212mECoRTitlagarh, Odisha
27%==%KSNGKesinga (1)XO  02:10+4602:12+462m12679.165183mECoRKesinga, Odisha
28%==%RPRDRupra RoadO  02:27+4902:29+492m--2695.344233mECoRKalahandi, Odisha
29%==%NRLRNorla RoadO  02:38+4802:40+482m--2702.060247mECoRKalahandi, Odisha
30%==%AMBAmbodala  03:05+4603:07+462m--2727.039374mECoRState Highway 6, Odisha
31%==%MNGDMunigudaX  03:45+3403:47+362m--2752.041335mECoRMuniguda, Odisha
32%==%THVTherubaliO  04:40+2404:42+262m--2788.031270mECoRRayagada, Odisha
33%==%SPRDSingapuram Road (2)X  05:00+2505:02+302m--2797.315248mECoRJaykaypur, Odisha
34%==%RGDARayagada (3)O  05:40+1305:55+1715m--2806.673229mECoRRayagada ph.no 06856-222407, Odisha
35%==%PVPTParvatipuram TownXO  06:32-06:34-2m--2851.925121mECoRParvatipuram, Andhra Pradesh
36%==%PVPParvatipuram (3)X  06:38+2406:40+242m--2853.572122mECoRParvatipuram, Andhra Pradesh
37%==%VBLBobbili Junction (2)X  07:00+2407:03+233m22877.449137mECoRBobbili, Andhra Pradesh
38%==%VZMVizianagaram Junction (5)  08:15 08:10+1408:20 08:15+215m--2931.78463mECoRVizianagaram, Andhra Pradesh
39/==/KTVKottavalasa Junction (5)X  08:48 08:40+3608:50 08:42+372m--2966.66058mECoRVizianagaram District, Andhra Pradesh
40/==/SCMSimhachalam (2)X  09:17 09:00-09:19 09:02-2m--2984.7927mECoRVisakhapatnam, Andhra Pradesh
41/==/VSKPVisakhapatnam Junction (8)XO10:05 09:55+1110:25 10:15+1520m32992.83311mECoRVishakhapatnam 530001, Andhra Pradesh
42/==/DVDDuvvada (4)X  10:55 10:45+1810:57 10:47+192m121009.24246mECoRVishakhapatnam District, Andhra Pradesh
43/==/AKPAnakapalle (3)  11:10+2311:11+261m221025.27130mSCRAnakapalle ph.no . 08924-221698, Andhra Pradesh
44/==/YLMElamanchili (2)X  11:31+2911:32+311m--21048.97123mSCRVisakhapatnam District, Andhra Pradesh
45/==/NRPNarsipatnam Road (2)  11:47+3811:48+391m--21066.68418mSCRVisakhapatnam District, Andhra Pradesh
46/==/TUNITuni (2)X  12:04+4412:05+451m121088.97124mSCRTuni ph.no. 08854-252172, Andhra Pradesh
47/==/ANVAnnavaram (3)  12:19+5012:20+521m121105.67627mSCREast Godavari District, Andhra Pradesh
48/==/GLPGollaproluX  12:35+5512:36+561m--21124.74919mSCRGollaprollu, Andhra Pradesh
49/==/PAPPithapuram (2)  12:43+5712:44+1:011m--21130.47222mSCREast Godavari District, Andhra Pradesh
50/==/SLOSamalkot Junction (3)  12:54+1:0412:55+1:051m321142.48418mSCRSamalkot, Andhra Pradesh
51/==/APTAnaparti (3)  13:14+1:1313:15+1:151m--21169.03821mSCREast Godavari District, Andhra Pradesh
52/==/DWPDwarapudi (3)  13:21+1:1413:22+1:161m--21172.72420mSCREast Godavari District, Andhra Pradesh
53/==/RJYRajahmundry (3)  14:11+4814:16+485m121192.63623mSCRRajahmundry ph.no. 0883-2420541, Andhra Pradesh
54/==/KVRKovvur (3)  14:29+5514:30+561m321200.56125mSCRWest Godavari, Andhra Pradesh
55/==/NDDNidadavolu Junction (3)  14:44+1:0114:45+1:021m221214.87120mSCRNidadavolu jtn ph.no. 08813-210325, Andhra Pradesh
56/==/TDDTadepalligudem (3)X  15:02+1:0415:03+1:051m321234.88718mSCRTadepalligudem, Andhra Pradesh
57/==/EEEluru (3)X  15:36+1:0615:37+1:081m321282.53319mSCREluru Ph.no. 08812 226401., Andhra Pradesh
58/==/BZAVijayawada Junction (10)X  17:25+4617:45+4820m--21341.96924mSCRVijayawada 520001, Andhra Pradesh
59/==/TELTenali Junction (5)O  18:12+1:0118:13+1:021m321373.26616mSCRTel: 08644-227834, Andhra Pradesh
60/==/NDONidubrolu (3)  18:33+1:0418:34+1:061m--21395.2659mSCRNidubrolu, Andhra Pradesh
61/==/BPPBapatla (3)X  18:53+1:0918:54+1:101m--21415.87510mSCRBapatla, Andhra Pradesh
62/==/CLXChirala (4)X  19:06+1:0919:07+1:111m--21430.8768mSCRChirala, Andhra Pradesh
63/==/CJMChinnaganjam (3)X  19:23+1:1919:24+1:201m--21451.2369mSCRChinna Ganjam, Andhra Pradesh
64/==/OGLOngole (3)  20:12+5820:13+1:001m321480.27712mSCROngole, Andhra Pradesh
65/==/SKMSingarayakonda (2)X  20:35+1:0920:36+1:101m221508.49126mSCRSingarayakonda, Andhra Pradesh
66/==/KVZKavali (4)X  21:01+1321:02+131m221546.27621mSCRKavali, Andhra Pradesh
67/==/BTTRBitragunta (2)X  21:15+2821:16+281m221562.64515mSCRBitragunta, Andhra Pradesh
68/==/NLRNellore (4)X  22:02+2222:03+221m321597.01721mSCRNellore, Andhra Pradesh
69/==/GDRGudur Junction (3)  00:18+2100:20+242m131635.46919mSCRGudur, Andhra Pradesh
70/==/NYPNayadupeta (3)  00:44+3300:45+451m231663.16833mSRNayudupeta, Andhra Pradesh
71/==/SPESullurupeta (3)  01:09+5201:10+531m231690.3479mSR524121., Andhra Pradesh
72/==/MASChennai Central (12)↵¶02:55+4003:25+4430m531772.8579mSRChennai 600003, Tamil Nadu
73/==/TRLTiruvallur (6)  04:09+5004:10+511m--31814.56550mSRTiruvallur, Tamil Nadu
74/==/AJJArakkonam Junction (8)X  04:35+4904:40+475m--31841.46891mSRArakkonam, Tamil Nadu
75/==/MCNMukundarayapuram (2)  05:19+4805:20+501m--31885.733198mSRSipcot Ranipet, Tamil Nadu
76/==/KPDKatpadi Junction (5)  05:50+3805:55+395m131902.277213mSRVellore 632007, Tamil Nadu
77/==/GYMGudiyattam (3)  06:14+4106:15+421m331926.891269mSRVellore, Tamil Nadu
78/==/VNVaniyambadiXO  06:44+4806:45+491m--31970.628357mSRVaniyambadi, Tamil Nadu
79/==/JTJJolarpettai Junction (5)O  07:18+3207:20+342m--31986.143405mSRJolarpettai, Tamil Nadu
80/==/TPTTirupattur (2)  07:30+4407:32+442m--31993.273392mSRTirupattur ph.no. 04179-220062, Tamil Nadu
81/==/SLYSamalpatti  07:50 07:51+4607:52+482 1m--32016.490388mSRSamalpatti ph.no. 04341-245601, Tamil Nadu
82/==/BQIBommidiX  08:23+5308:25+562m--32063.1520mSRBommidi ph.no. 04346-244441, Tamil Nadu
83/==/SASalem Junction (6)XO  09:00 09:15+5909:05 09:20+595m--32106.361283mSRSalem, Tamil Nadu
84/==/EDErode Junction (4)X  10:15 10:20+5810:25 10:30+5910m232167.770175mSRErode ph.no: 0424-2256111, Tamil Nadu
85/==/TUPTiruppur (2)  11:03 11:13+1:0311:05 11:15+1:032m132217.943305mSRTiruppur. Ph:0421-2200450, Tamil Nadu
86/==/CBECoimbatore Main Junction (6)•X  12:08 12:25+5312:10 12:30+542 5m--32268.439416mSRCoimbatore 641001, Tamil Nadu
87/==/PGTPalakkad Junction (4)X  13:30 13:55+4913:35 14:00+525m--32323.73684mSRPalghat Tel: 0491 2555231, Kerala
88/==/SRRShoranur Junction (7)14:40 15:15+4115:25+5045 10m532368.34226mSRShoranur ph.no 0466-2222913, Kerala
89/==/TCRThrissur (4)  16:27 16:12+5116:30 16:15+533m132401.2606mSRThrissur Tel: 0487 2423150, Kerala
90/==/AWYAluva (3)XO  17:18 17:10+5417:20 17:12+542m132455.81712mSRPh: 0484-2624141, Kerala
91/=-/ERSErnakulam Junction (South) (6)  18:26 18:20+4018:30 18:25+444 5m132475.2413mSRErnakulam 682016, Kerala
92/--/TUVRTuravur (2)  19:04 18:59+3919:05 19:00+411m132498.6665mSRThuravoor, Kerala
93/--/SRTLCherthala (3)O  19:19 19:09+3919:20 19:10+411m232508.6737mSRPh: 0478- 2812500, Kerala
94/--/MAKMMararikkulam (1)X  19:25 19:19+5719:45 19:20+1:0220 1m132519.61312mSRMararikulam, Kerala
95/--/ALLPAlappuzha (3)  20:20+43-332532.8-8mSRPh:0477-2253965, Kerala
Scroll to Top
Scroll to Bottom